Latest Weather Observations for Double Island Point

IDQ60801

Issued at 6:32 am EST Saturday 27 May 2017 (issued every 30 minutes, with the page automatically refreshed every 10 minutes)

About weather observations | Map of weather stations | Latest weather observations for QLD | Other Formats
Station Details ID: 040068 Name: DOUBLE ISLAND POINT LIGHTHOUSE Lat: -25.93 Lon: 153.19 Height: 95.64 m
Data from the previous 72 hours. | See also: Recent months at Double Island Point
Date/Time
EST
Temp
°C
App
Temp
°C
Dew
Point
°C
Rel
Hum
%
Delta-T
°C
Wind Press
QNH
hPa
Press
MSL
hPa
Rain since
9am
mm
Dir  Spd
km/h
Gust
km/h
Spd
kts
Gust
kts
27/06:30am 18.7 19.4 17.0 90 1.0 SSE 9 15 5 8 1020.5 1020.2 5.4
27/06:00am 18.6 18.3 17.3 92 0.8 ESE 15 20 8 11 1020.1 1019.8 3.4
27/05:30am 18.9 16.9 16.5 86 1.4 S 22 26 12 14 1019.5 1019.2 0.0
27/05:00am 18.7 16.6 16.1 85 1.5 SSW 22 26 12 14 1019.2 1018.9 0.0
27/04:30am 18.7 16.2 16.1 85 1.6 SSW 24 28 13 15 1019.2 1018.9 0.0
27/04:00am 18.8 16.7 16.2 85 1.6 SSW 22 26 12 14 1019.1 1018.8 0.0
27/03:30am 18.7 16.5 15.9 84 1.7 SSW 22 26 12 14 1019.0 1018.7 0.0
27/03:00am 19.1 17.6 16.7 86 1.4 SSW 20 24 11 13 1019.1 1018.8 0.0
27/02:30am 19.6 18.0 15.9 79 2.2 SSW 19 24 10 13 1019.3 1019.0 0.0
27/02:00am 20.4 18.7 14.7 70 3.3 SSE 17 24 9 13 1019.5 1019.2 0.0
27/01:30am 20.6 19.3 14.9 70 3.4 SE 15 19 8 10 1019.8 1019.5 0.0
27/01:00am 20.6 19.1 15.2 71 3.2 SSE 17 20 9 11 1020.0 1019.7 0.0
27/12:30am 20.6 18.9 14.7 69 3.5 ESE 17 20 9 11 1020.0 1019.7 0.0
27/12:00am 20.8 18.7 14.7 68 3.6 ESE 19 22 10 12 1020.2 1019.9 0.0
 
Date/Time
EST
Temp
°C
App
Temp
°C
Dew
Point
°C
Rel
Hum
%
Delta-T
°C
Wind Press
QNH
hPa
Press
MSL
hPa
Rain since
9am
mm
Dir  Spd
km/h
Gust
km/h
Spd
kts
Gust
kts
26/11:30pm 20.7 19.0 14.6 68 3.6 ESE 17 20 9 11 1020.2 1019.9 0.0
26/11:00pm 20.8 18.8 14.9 69 3.5 ESE 19 22 10 12 1020.2 1019.9 0.0
26/10:30pm 20.9 19.1 15.4 71 3.3 ESE 19 26 10 14 1020.3 1020.0 0.0
26/10:00pm 20.9 18.7 15.0 69 3.5 ESE 20 26 11 14 1020.5 1020.2 0.0
26/09:30pm 21.1 19.0 15.2 69 3.5 ESE 20 28 11 15 1020.4 1020.1 0.0
26/09:00pm 21.0 19.0 15.5 71 3.3 ESE 20 24 11 13 1020.3 1020.0 0.0
26/08:30pm 21.0 18.9 15.3 70 3.4 SE 20 24 11 13 1020.2 1019.9 0.0
26/08:00pm 20.9 18.8 15.2 70 3.4 SE 20 26 11 14 1020.0 1019.7 0.0
26/07:30pm 20.9 18.5 15.4 71 3.3 SE 22 28 12 15 1019.6 1019.3 0.0
26/07:00pm 20.9 18.3 15.0 69 3.5 SE 22 28 12 15 1019.2 1018.9 0.0
26/06:30pm 20.8 17.9 15.1 70 3.4 SE 24 30 13 16 1018.8 1018.5 0.0
26/06:00pm 20.9 17.7 15.4 71 3.3 SE 26 32 14 17 1018.5 1018.2 0.0
26/05:30pm 20.9 17.7 15.2 70 3.4 SE 26 32 14 17 1018.2 1017.9 0.0
26/05:00pm 21.0 17.4 15.3 70 3.4 SE 28 35 15 19 1018.0 1017.7 0.0
26/04:30pm 21.1 17.0 15.0 68 3.6 SE 30 35 16 19 1017.9 1017.6 0.0
26/04:00pm 21.0 16.4 15.1 69 3.5 SSE 33 39 18 21 1017.8 1017.5 0.0
26/03:30pm 21.2 16.9 16.0 72 3.1 SSE 33 39 18 21 1017.7 1017.4 0.0
26/03:00pm 21.2 16.9 15.5 70 3.4 SSE 32 37 17 20 1017.9 1017.6 0.0
26/02:30pm 21.3 17.1 15.8 71 3.3 SSE 32 35 17 19 1018.2 1017.9 0.0
26/02:00pm 21.0 16.8 15.8 72 3.1 SSE 32 39 17 21 1018.3 1018.0 0.0
26/01:30pm 21.5 17.3 15.6 69 3.5 SSE 32 39 17 21 1018.4 1018.1 0.0
26/01:00pm 21.6 17.9 15.9 70 3.4 SSE 30 37 16 20 1018.7 1018.4 0.0
26/12:30pm 21.5 17.9 16.2 72 3.2 S 30 35 16 19 1019.2 1018.9 0.0
26/12:00pm 21.4 18.0 16.8 75 2.8 S 30 37 16 20 1019.6 1019.3 0.0
26/11:30am 21.2 17.8 16.8 76 2.7 S 30 37 16 20 1020.0 1019.7 0.0
26/11:00am 21.1 17.9 17.3 79 2.3 S 30 37 16 20 1020.3 1020.0 0.0
26/10:30am 20.9 17.7 17.3 80 2.2 S 30 37 16 20 1020.5 1020.2 0.0
26/10:00am 20.5 17.3 17.3 82 2.0 SSW 30 35 16 19 1020.5 1020.2 0.0
26/09:30am 20.2 16.9 17.0 82 2.0 S 30 37 16 20 1020.5 1020.2 0.0
26/09:00am 19.8 16.4 16.8 83 1.8 S 30 37 16 20 1020.5 1020.2 0.0
26/08:30am 19.3 15.4 16.9 86 1.5 SSW 33 39 18 21 1020.3 1020.0 0.0
26/08:00am 19.2 15.6 17.2 88 1.2 S 32 39 17 21 1020.0 1019.7 0.0
26/07:30am 18.5 15.7 17.2 92 0.8 SSW 28 35 15 19 1019.8 1019.5 0.0
26/07:00am 18.5 14.9 17.3 93 0.7 SSW 32 41 17 22 1019.4 1019.1 0.0
26/06:30am 18.5 15.3 18.2 98 0.2 S 32 39 17 21 1019.0 1018.7 0.0
26/06:00am 18.3 14.7 17.7 96 0.4 SSW 33 37 18 20 1018.4 1018.1 0.0
26/05:30am 18.4 14.9 17.4 94 0.6 SSW 32 35 17 19 1018.2 1017.9 0.0
26/05:00am 18.6 15.8 17.4 93 0.7 SSW 28 35 15 19 1018.1 1017.8 0.0
26/04:30am 18.6 15.6 16.9 90 1.0 SSW 28 32 15 17 1017.9 1017.6 0.0
26/04:00am 18.7 16.4 16.7 88 1.2 SSW 24 28 13 15 1017.8 1017.5 0.0
26/03:30am 19.1 16.5 16.9 87 1.3 SSW 26 32 14 17 1017.6 1017.3 0.0
26/03:00am 19.2 17.8 17.0 87 1.3 SSW 20 26 11 14 1017.9 1017.6 0.0
26/02:30am 20.1 18.1 16.5 80 2.2 S 22 28 12 15 1018.2 1017.9 0.0
26/02:00am 21.3 17.7 14.2 64 4.1 SE 26 30 14 16 1018.4 1018.1 0.0
26/01:30am 21.1 18.1 13.8 63 4.2 SE 22 26 12 14 1018.6 1018.3 0.0
26/01:00am 21.3 17.9 13.7 62 4.4 SE 24 30 13 16 1019.0 1018.7 0.0
26/12:30am 21.3 17.3 14.2 64 4.2 ESE 28 33 15 18 1019.0 1018.7 0.0
26/12:00am 21.6 18.4 15.2 67 3.8 ESE 26 33 14 18 1019.2 1018.9 0.0
 
Date/Time
EST
Temp
°C
App
Temp
°C
Dew
Point
°C
Rel
Hum
%
Delta-T
°C
Wind Press
QNH
hPa
Press
MSL
hPa
Rain since
9am
mm
Dir  Spd
km/h
Gust
km/h
Spd
kts
Gust
kts
25/11:30pm 21.6 18.6 14.7 65 4.1 ESE 24 32 13 17 1019.2 1018.9 0.0
25/11:00pm 21.6 17.9 15.0 66 3.9 SE 28 33 15 18 1019.3 1019.0 0.0
25/10:30pm 21.6 18.7 15.2 67 3.8 SE 24 30 13 16 1019.2 1018.9 0.0
25/10:00pm 21.6 18.1 15.4 68 3.7 SE 28 33 15 18 1019.3 1019.0 0.0
25/09:30pm 21.7 18.2 16.4 72 3.2 SE 30 35 16 19 1019.3 1019.0 0.0
25/09:00pm 21.4 17.4 16.1 72 3.2 SSE 32 39 17 21 1019.2 1018.9 0.0
25/08:30pm 21.4 17.6 16.6 74 2.9 SSE 32 37 17 20 1019.1 1018.8 0.0
25/08:00pm 21.4 17.4 16.6 74 2.9 SSE 33 39 18 21 1019.1 1018.8 0.0
25/07:30pm 21.5 17.6 16.9 75 2.8 SSE 33 39 18 21 1018.8 1018.5 0.0
25/07:00pm 21.4 17.4 16.8 75 2.8 SSE 33 39 18 21 1018.5 1018.2 0.0
25/06:30pm 21.5 17.3 15.8 70 3.4 SSE 32 37 17 20 1018.2 1017.9 0.0
25/06:00pm 21.3 17.8 17.9 81 2.1 SSE 33 41 18 22 1017.9 1017.6 0.0
25/05:30pm 21.2 17.6 17.6 80 2.2 SSE 33 43 18 23 1017.7 1017.4 0.0
25/05:00pm 21.2 17.6 17.6 80 2.2 SSE 33 41 18 22 1017.5 1017.2 0.0
25/04:30pm 21.2 17.4 16.8 76 2.7 S 32 41 17 22 1017.4 1017.1 0.0
25/04:00pm 21.3 17.5 16.7 75 2.8 S 32 37 17 20 1017.2 1016.9 0.0
25/03:30pm 21.3 17.6 17.5 79 2.3 S 33 41 18 22 1017.0 1016.7 0.0
25/03:00pm 21.5 17.7 17.3 77 2.6 S 33 43 18 23 1016.7 1016.4 0.0
25/02:30pm 21.7 17.9 17.3 76 2.7 S 33 43 18 23 1016.7 1016.4 0.0
25/02:00pm 21.7 18.0 17.5 77 2.6 S 33 43 18 23 1016.8 1016.5 0.0
25/01:30pm 21.7 17.9 17.1 75 2.8 S 33 39 18 21 1016.8 1016.5 0.0
25/01:00pm 21.6 17.9 17.0 75 2.8 S 32 39 17 21 1016.9 1016.6 0.0
25/12:30pm 21.6 17.8 16.8 74 2.9 S 32 41 17 22 1017.3 1017.0 0.0
25/12:00pm 21.6 17.4 15.7 69 3.5 S 32 41 17 22 1017.5 1017.2 0.0
25/11:30am 21.6 17.1 15.0 66 3.9 S 32 35 17 19 1017.9 1017.6 0.0
25/11:00am 21.2 16.6 13.6 62 4.4 S 30 37 16 20 1018.1 1017.8 0.0
25/10:30am 21.2 17.3 13.4 61 4.5 S 26 35 14 19 1018.3 1018.0 0.0
25/10:00am 21.4 16.9 12.5 57 5.0 S 28 37 15 20 1018.4 1018.1 0.0
25/09:30am 21.3 15.4 10.5 50 5.9 S 32 39 17 21 1018.5 1018.2 0.0
25/09:00am 21.7 18.2 10.2 48 6.3 SSW 19 28 10 15 1018.6 1018.3 0.0
25/08:30am 21.3 17.3 9.2 46 6.5 SSW 20 28 11 15 1018.5 1018.2 0.0
25/08:00am 20.9 17.3 10.4 51 5.7 SSW 20 30 11 16 1018.3 1018.0 0.0
25/07:30am 20.4 18.0 12.6 61 4.4 SSW 17 24 9 13 1018.2 1017.9 0.0
25/07:00am 20.4 16.6 12.4 60 4.5 SSW 24 33 13 18 1017.6 1017.3 0.0
25/06:30am 20.9 15.6 12.6 59 4.7 SSW 32 39 17 21 1017.1 1016.8 0.0
25/06:00am 21.2 15.5 11.2 53 5.5 SSW 32 39 17 21 1016.5 1016.2 0.0
25/05:30am 20.8 17.1 12.8 60 4.6 SSW 24 32 13 17 1016.2 1015.9 0.0
25/05:00am 21.3 18.3 12.7 58 4.9 SW 20 30 11 16 1016.0 1015.7 0.0
25/04:30am 21.5 17.6 13.2 59 4.8 WSW 26 33 14 18 1015.8 1015.5 0.0
25/04:00am 21.3 18.3 14.7 66 3.9 W 24 32 13 17 1015.4 1015.1 0.0
25/03:30am 21.4 20.7 15.3 68 3.6 WNW 13 24 7 13 1015.6 1015.3 0.0
25/03:00am 21.5 19.0 15.1 67 3.8 WNW 22 33 12 18 1015.5 1015.2 0.0
25/02:30am 21.5 17.5 15.3 68 3.7 WNW 30 43 16 23 1015.6 1015.3 0.0
25/02:00am 21.0 17.3 16.0 73 3.0 WNW 30 39 16 21 1015.7 1015.4 0.0
25/01:30am 20.2 15.7 16.4 79 2.3 WNW 35 43 19 23 1015.9 1015.6 0.0
25/01:00am 19.5 16.6 18.0 91 0.9 NW 30 41 16 22 1016.2 1015.9 0.0
25/12:30am 19.2 16.4 17.3 89 1.2 NW 28 32 15 17 1016.5 1016.2 0.0
25/12:00am 19.2 16.2 17.7 91 0.9 NW 30 33 16 18 1016.5 1016.2 0.0
 
Date/Time
EST
Temp
°C
App
Temp
°C
Dew
Point
°C
Rel
Hum
%
Delta-T
°C
Wind Press
QNH
hPa
Press
MSL
hPa
Rain since
9am
mm
Dir  Spd
km/h
Gust
km/h
Spd
kts
Gust
kts
24/11:30pm 19.5 17.5 18.2 92 0.8 NW 26 32 14 17 1016.7 1016.4 0.0
24/11:00pm 19.7 18.1 18.4 92 0.8 NW 24 30 13 16 1016.9 1016.6 0.0
24/10:30pm 20.0 18.7 18.1 89 1.2 NW 22 30 12 16 1017.1 1016.8 0.0
24/10:00pm 20.5 17.9 17.9 85 1.6 NW 28 33 15 18 1017.2 1016.9 0.0
24/09:30pm 20.8 18.1 16.6 77 2.6 NW 26 32 14 17 1017.1 1016.8 0.0
24/09:00pm 21.0 19.8 17.6 81 2.1 NNW 20 24 11 13 1017.2 1016.9 0.0
24/08:30pm 21.3 20.1 18.3 83 1.9 NNW 22 26 12 14 1017.2 1016.9 0.0
24/08:00pm 21.3 20.5 18.5 84 1.8 N 20 26 11 14 1017.2 1016.9 0.0
24/07:30pm 21.3 21.3 18.9 86 1.5 N 17 26 9 14 1017.2 1016.9 0.0
24/07:00pm 21.2 22.6 18.6 85 1.6 N 9 15 5 8 1017.2 1016.9 0.0
24/06:30pm 21.3 23.0 18.5 84 1.8 N 7 11 4 6 1017.0 1016.7 0.0
24/06:00pm 21.4 23.1 18.6 84 1.8 N 7 11 4 6 1016.9 1016.6 0.0
24/05:30pm 21.6 23.3 18.4 82 2.0 N 7 11 4 6 1016.7 1016.4 0.0
24/05:00pm 22.2 23.6 17.8 76 2.7 N 7 9 4 5 1016.6 1016.3 0.0
24/04:30pm 23.6 25.1 18.0 71 3.5 N 7 11 4 6 1016.5 1016.2 0.0
24/04:00pm 24.2 25.8 17.9 68 4.0 NNE 6 13 3 7 1016.2 1015.9 0.0
24/03:30pm 25.0 25.8 18.2 66 4.3 NNE 11 19 6 10 1016.0 1015.7 0.0
24/03:00pm 25.5 26.0 18.4 65 4.5 NNE 13 19 7 10 1016.0 1015.7 0.0
24/02:30pm 26.0 26.9 18.4 63 4.8 NNE 11 17 6 9 1016.2 1015.9 0.0
24/02:00pm 25.7 25.9 17.6 61 5.1 NNE 13 20 7 11 1016.4 1016.1 0.0
24/01:30pm 25.8 26.5 18.0 62 4.9 NNE 11 17 6 9 1016.7 1016.4 0.0
24/01:00pm 25.4 26.4 17.8 62 4.8 NNE 9 13 5 7 1017.2 1016.9 0.0
24/12:30pm 25.4 27.0 18.3 65 4.5 N 7 9 4 5 1017.5 1017.2 0.0
24/12:00pm 25.7 26.9 19.1 67 4.2 N 11 17 6 9 1018.0 1017.7 0.0
24/11:30am 25.1 26.6 19.0 69 3.9 N 9 13 5 7 1018.6 1018.3 0.0
24/11:00am 25.0 26.3 18.4 66 4.2 N 9 15 5 8 1019.0 1018.7 0.0
24/10:30am 24.5 26.7 19.1 72 3.5 NE 6 9 3 5 1019.5 1019.2 0.0
24/10:00am 22.8 24.5 18.6 77 2.6 SE 7 11 4 6 1019.9 1019.6 0.0
24/09:30am 22.0 23.1 18.0 78 2.5 SSE 9 13 5 7 1020.1 1019.8 0.0
24/09:00am 21.4 22.3 17.6 79 2.3 S 9 13 5 7 1020.1 1019.8 -
24/08:30am 21.0 22.0 18.6 86 1.5 SSW 11 13 6 7 1020.0 1019.7 -
24/08:00am 20.5 21.8 19.3 93 0.8 SSW 11 13 6 7 1019.7 1019.4 -
24/07:30am 20.0 20.9 19.3 96 0.4 SSW 13 15 7 8 1019.5 1019.2 -
24/07:00am 19.8 20.5 19.6 99 0.1 SSW 15 17 8 9 1019.3 1019.0 -

Other Formats:

Comma delimited format used in spreadsheet applications
http://www.bom.gov.au/fwo/IDQ60801/IDQ60801.94584.axf

JavaScript Object Notation format (JSON) in row-major order
http://www.bom.gov.au/fwo/IDQ60801/IDQ60801.94584.json